Time;durP1;ratioP1;P1;durP2;ratioP2;P2;SDS_P1;SDS_P2;PMS_P1;PMS_P2;Temp;Humidity;BMP_temperature;BMP_pressure;BME280_temperature;BME280_humidity;BME280_pressure;Samples;Min_cycle;Max_cycle;Signal;HPM_P1;HPM_P2
2022/01/04 00:01:35;;;;;;;;;;;9.30;99.90;;;;;;5074141;28;19927;-82
2022/01/04 00:04:00;;;;;;;;;;;9.30;99.90;;;;;;5090930;28;20302;-76
2022/01/04 00:06:26;;;;;;;;;;;9.30;99.90;;;;;;5091248;28;20461;-76
2022/01/04 00:08:55;;;;;;;;;;;9.30;99.90;;;;;;5090393;28;20383;-75
2022/01/04 00:11:32;;;;;;;;;;;9.30;99.90;;;;;;5091514;28;19969;-75
2022/01/04 00:13:57;;;;;;;;;;;9.30;99.90;;;;;;5091884;28;19919;-75
2022/01/04 00:16:23;;;;;;;;;;;9.30;99.90;;;;;;5092830;28;19912;-75
2022/01/04 00:18:48;;;;;;;;;;;9.30;99.90;;;;;;5076908;28;20372;-75
2022/01/04 00:21:14;;;;;;;;;;;9.30;99.90;;;;;;5090868;28;19977;-75
2022/01/04 00:23:39;;;;;;;;;;;9.30;99.90;;;;;;5090354;28;19912;-76
2022/01/04 00:26:05;;;;;;;;;;;9.30;99.90;;;;;;5091141;28;19912;-75
2022/01/04 00:28:30;;;;;;;;;;;9.20;99.90;;;;;;5073733;28;19965;-75
2022/01/04 00:30:56;;;;;;;;;;;9.20;99.90;;;;;;5112365;28;20078;-74
2022/01/04 00:33:21;;;;;;;;;;;9.30;99.90;;;;;;5115124;28;20048;-75
2022/01/04 00:35:47;;;;;;;;;;;9.20;99.90;;;;;;5114583;28;19908;-75
2022/01/04 00:38:12;;;;;;;;;;;9.20;99.90;;;;;;5114841;28;19912;-74
2022/01/04 00:40:38;;;;;;;;;;;9.20;99.90;;;;;;5114082;28;20304;-81
2022/01/04 00:43:04;;;;;;;;;;;9.20;99.90;;;;;;5097675;28;20283;-74
2022/01/04 00:45:36;;;;;;;;;;;9.20;99.90;;;;;;5114837;28;20363;-74
2022/01/04 00:50:28;;;;;;;;;;;9.10;99.90;;;;;;5112768;28;19915;-74
2022/01/04 00:52:54;;;;;;;;;;;9.10;99.90;;;;;;5076913;28;19912;-74
2022/01/04 00:55:20;;;;;;;;;;;9.00;99.90;;;;;;5095463;28;20028;-74
2022/01/04 00:57:46;;;;;;;;;;;9.00;99.90;;;;;;5095179;28;20344;-75
2022/01/04 01:00:12;;;;;;;;;;;9.00;99.90;;;;;;5094147;28;20343;-74
2022/01/04 01:02:37;;;;;;;;;;;9.00;99.90;;;;;;5093601;28;20019;-74
2022/01/04 01:05:03;;;;;;;;;;;9.00;99.90;;;;;;5094637;28;19966;-74
2022/01/04 01:07:29;;;;;;;;;;;9.00;99.90;;;;;;5094242;28;19912;-74
2022/01/04 01:10:20;;;;;;;;;;;8.90;99.90;;;;;;5094388;28;19908;-75
2022/01/04 01:12:40;;;;;;;;;;;9.00;99.90;;;;;;5108159;28;20006;-75
2022/01/04 01:15:06;;;;;;;;;;;9.10;99.90;;;;;;5115948;28;19939;-75
2022/01/04 01:17:32;;;;;;;;;;;9.10;99.90;;;;;;5116106;28;19935;-75
2022/01/04 01:19:58;;;;;;;;;;;9.10;99.90;;;;;;5116812;28;20343;-75
2022/01/04 01:22:24;;;;;;;;;;;9.00;99.90;;;;;;5131923;27;20296;-75
2022/01/04 01:24:50;;;;;;;;;;;9.00;99.90;;;;;;5137846;27;20019;-75
2022/01/04 01:27:16;;;;;;;;;;;9.00;99.90;;;;;;5136355;27;19946;-75
2022/01/04 01:29:41;;;;;;;;;;;9.00;99.90;;;;;;5136184;27;20061;-75
2022/01/04 01:32:07;;;;;;;;;;;9.00;99.90;;;;;;5117489;27;19937;-76
2022/01/04 01:34:33;;;;;;;;;;;9.00;99.90;;;;;;5136409;27;19919;-76
2022/01/04 01:36:58;;;;;;;;;;;9.00;99.90;;;;;;5117210;27;19998;-76
2022/01/04 01:39:24;;;;;;;;;;;8.90;99.90;;;;;;5136023;27;20282;-75
2022/01/04 01:41:50;;;;;;;;;;;8.90;99.90;;;;;;5116544;27;19915;-76
2022/01/04 01:44:15;;;;;;;;;;;8.90;99.90;;;;;;5117477;27;20378;-76
2022/01/04 01:46:41;;;;;;;;;;;8.90;99.90;;;;;;5117376;27;20024;-76
2022/01/04 01:49:06;;;;;;;;;;;9.00;99.90;;;;;;5117110;27;19907;-76
2022/01/04 01:51:32;;;;;;;;;;;9.00;99.90;;;;;;5100124;27;20320;-77
2022/01/04 01:53:58;;;;;;;;;;;9.00;99.90;;;;;;5127824;27;19951;-77
2022/01/04 01:56:24;;;;;;;;;;;8.90;99.90;;;;;;5096803;28;19912;-76
2022/01/04 01:58:50;;;;;;;;;;;8.90;99.90;;;;;;5113265;28;19968;-82
2022/01/04 02:01:15;;;;;;;;;;;8.90;99.90;;;;;;5096522;28;20022;-76
2022/01/04 02:03:41;;;;;;;;;;;8.80;99.90;;;;;;5079799;28;20025;-76
2022/01/04 02:06:06;;;;;;;;;;;8.90;99.90;;;;;;5095417;28;20685;-76
2022/01/04 02:08:32;;;;;;;;;;;8.90;99.90;;;;;;5079300;28;19958;-77
2022/01/04 02:10:58;;;;;;;;;;;8.90;99.90;;;;;;5095970;28;19911;-76
2022/01/04 02:13:24;;;;;;;;;;;8.90;99.90;;;;;;5095750;28;19953;-77
2022/01/04 02:15:53;;;;;;;;;;;8.90;99.90;;;;;;5127713;27;19918;-82
2022/01/04 02:18:18;;;;;;;;;;;8.90;99.90;;;;;;5135081;27;19979;-76
2022/01/04 02:20:44;;;;;;;;;;;8.90;99.90;;;;;;5095311;28;20313;-77
2022/01/04 02:23:09;;;;;;;;;;;8.90;99.90;;;;;;5112655;28;19912;-76
2022/01/04 02:25:35;;;;;;;;;;;9.00;99.90;;;;;;5095769;28;20253;-76
2022/01/04 02:28:00;;;;;;;;;;;9.00;99.90;;;;;;5113441;28;19911;-76
2022/01/04 02:30:26;;;;;;;;;;;9.00;99.90;;;;;;5114350;28;20275;-76
2022/01/04 02:32:52;;;;;;;;;;;9.00;99.90;;;;;;5098529;27;19991;-81
2022/01/04 02:35:19;;;;;;;;;;;9.00;99.90;;;;;;5102107;27;19934;-76
2022/01/04 02:37:44;;;;;;;;;;;8.90;99.90;;;;;;5115873;27;20018;-76
2022/01/04 02:40:10;;;;;;;;;;;8.90;99.90;;;;;;5115436;27;19950;-76
2022/01/04 02:42:36;;;;;;;;;;;8.90;99.90;;;;;;5134138;27;19919;-77
2022/01/04 02:45:02;;;;;;;;;;;8.90;99.90;;;;;;5100165;28;19913;-76
2022/01/04 02:47:28;;;;;;;;;;;8.90;99.90;;;;;;5095381;28;19916;-76
2022/01/04 02:49:54;;;;;;;;;;;8.90;99.90;;;;;;5113455;28;19919;-83
2022/01/04 02:52:20;;;;;;;;;;;9.00;99.90;;;;;;5095248;28;20363;-76
2022/01/04 02:54:45;;;;;;;;;;;8.90;99.90;;;;;;5114639;27;19943;-76
2022/01/04 02:57:11;;;;;;;;;;;8.90;99.90;;;;;;5118788;27;19912;-76
2022/01/04 02:59:37;;;;;;;;;;;8.90;99.90;;;;;;5134381;27;19946;-76
2022/01/04 03:02:03;;;;;;;;;;;8.90;99.90;;;;;;5115183;27;19911;-76
2022/01/04 03:04:28;;;;;;;;;;;8.80;99.90;;;;;;5133617;27;19907;-76
2022/01/04 03:06:54;;;;;;;;;;;8.80;99.90;;;;;;5133896;27;20386;-83
2022/01/04 03:09:19;;;;;;;;;;;8.80;99.90;;;;;;5133960;27;19990;-76
2022/01/04 03:11:45;;;;;;;;;;;8.80;99.90;;;;;;5115780;27;19915;-76
2022/01/04 03:14:10;;;;;;;;;;;8.80;99.90;;;;;;5114957;27;20014;-76
2022/01/04 03:16:36;;;;;;;;;;;8.80;99.90;;;;;;5095147;27;20325;-76
2022/01/04 03:21:28;;;;;;;;;;;8.80;99.90;;;;;;5133796;27;19923;-76
2022/01/04 03:23:56;;;;;;;;;;;8.80;99.90;;;;;;5114966;27;20407;-76
2022/01/04 03:26:21;;;;;;;;;;;8.80;99.90;;;;;;5114238;27;19915;-76
2022/01/04 03:28:47;;;;;;;;;;;8.80;99.90;;;;;;5115206;27;19954;-76
2022/01/04 03:31:13;;;;;;;;;;;8.80;99.90;;;;;;5114657;28;19919;-76
2022/01/04 03:33:38;;;;;;;;;;;8.80;99.90;;;;;;5098011;27;20351;-76
2022/01/04 03:36:04;;;;;;;;;;;8.80;99.90;;;;;;5114357;28;19933;-76
2022/01/04 03:38:29;;;;;;;;;;;8.80;99.90;;;;;;5133175;27;19914;-76
2022/01/04 03:40:55;;;;;;;;;;;8.70;99.90;;;;;;5098280;27;20013;-76
2022/01/04 03:43:23;;;;;;;;;;;8.80;99.90;;;;;;5115785;28;19965;-76
2022/01/04 03:45:49;;;;;;;;;;;8.80;99.90;;;;;;5134347;28;19912;-76
2022/01/04 03:48:15;;;;;;;;;;;8.80;99.90;;;;;;5115263;28;20036;-76
2022/01/04 03:50:40;;;;;;;;;;;8.80;99.90;;;;;;5135700;28;20248;-76
2022/01/04 03:53:06;;;;;;;;;;;8.80;99.90;;;;;;5097906;28;19912;-76
2022/01/04 03:55:33;;;;;;;;;;;8.80;99.90;;;;;;5134378;28;19907;-76
2022/01/04 03:57:59;;;;;;;;;;;8.80;99.90;;;;;;5115196;28;19938;-77
2022/01/04 04:00:24;;;;;;;;;;;8.80;99.90;;;;;;5114789;28;20355;-76
2022/01/04 04:02:50;;;;;;;;;;;8.90;99.90;;;;;;5114986;28;20328;-76
2022/01/04 04:05:15;;;;;;;;;;;8.80;99.90;;;;;;5117643;27;19907;-76
2022/01/04 04:07:41;;;;;;;;;;;8.90;99.90;;;;;;5118901;27;20005;-76
2022/01/04 04:10:07;;;;;;;;;;;8.80;99.90;;;;;;5118747;27;19999;-76
2022/01/04 04:12:33;;;;;;;;;;;8.80;99.90;;;;;;5119025;27;20323;-75
2022/01/04 04:15:03;;;;;;;;;;;8.70;99.90;;;;;;5137756;27;19947;-75
2022/01/04 04:17:29;;;;;;;;;;;8.70;99.90;;;;;;5137441;27;19911;-76
2022/01/04 04:19:55;;;;;;;;;;;8.70;99.90;;;;;;5117964;27;20252;-75
2022/01/04 04:22:20;;;;;;;;;;;8.70;99.90;;;;;;5100983;27;19934;-75
2022/01/04 04:24:46;;;;;;;;;;;8.70;99.90;;;;;;5118759;27;19915;-75
2022/01/04 04:27:12;;;;;;;;;;;8.70;99.90;;;;;;5136848;27;19919;-75
2022/01/04 04:29:38;;;;;;;;;;;8.70;99.90;;;;;;5116772;27;19908;-75
2022/01/04 04:32:04;;;;;;;;;;;8.60;99.90;;;;;;5118852;27;20010;-76
2022/01/04 04:34:29;;;;;;;;;;;8.60;99.90;;;;;;5118292;27;19976;-75
2022/01/04 04:36:55;;;;;;;;;;;8.50;99.90;;;;;;5101577;27;20382;-76
2022/01/04 04:39:20;;;;;;;;;;;8.50;99.90;;;;;;5135696;27;19912;-76
2022/01/04 04:41:46;;;;;;;;;;;8.50;99.90;;;;;;5118621;27;19930;-75
2022/01/04 04:44:11;;;;;;;;;;;8.50;99.90;;;;;;5135989;27;20430;-76
2022/01/04 04:46:37;;;;;;;;;;;8.50;99.90;;;;;;5136814;27;19912;-75
2022/01/04 04:49:05;;;;;;;;;;;8.60;99.90;;;;;;5118406;27;19907;-75
2022/01/04 04:51:30;;;;;;;;;;;8.60;99.90;;;;;;5117301;27;19911;-75
2022/01/04 04:53:56;;;;;;;;;;;8.60;99.90;;;;;;5118062;27;20072;-76
2022/01/04 04:56:21;;;;;;;;;;;8.60;99.90;;;;;;5136402;27;19984;-76
2022/01/04 04:58:47;;;;;;;;;;;8.70;99.90;;;;;;5118753;27;19912;-76
2022/01/04 05:01:12;;;;;;;;;;;8.70;99.90;;;;;;5113115;28;19981;-76
2022/01/04 05:03:38;;;;;;;;;;;8.70;99.90;;;;;;5116213;28;19911;-75
2022/01/04 05:06:03;;;;;;;;;;;8.70;99.90;;;;;;5097469;28;20279;-75
2022/01/04 05:08:29;;;;;;;;;;;8.70;99.90;;;;;;5096738;28;20011;-76
2022/01/04 05:10:55;;;;;;;;;;;8.70;99.90;;;;;;5100603;27;19908;-75
2022/01/04 05:13:20;;;;;;;;;;;8.70;99.90;;;;;;5135674;27;19919;-76
2022/01/04 05:15:46;;;;;;;;;;;8.70;99.90;;;;;;5134741;27;19907;-75
2022/01/04 05:18:11;;;;;;;;;;;8.70;99.90;;;;;;5135672;27;20405;-82
2022/01/04 05:20:37;;;;;;;;;;;8.70;99.90;;;;;;5118149;27;20010;-75
2022/01/04 05:23:02;;;;;;;;;;;8.70;99.90;;;;;;5135249;27;19927;-75
2022/01/04 05:25:28;;;;;;;;;;;8.70;99.90;;;;;;5135313;27;19992;-75
2022/01/04 05:27:53;;;;;;;;;;;8.60;99.90;;;;;;5117383;27;20333;-75
2022/01/04 05:30:19;;;;;;;;;;;8.60;99.90;;;;;;5116796;27;19955;-76
2022/01/04 05:32:44;;;;;;;;;;;8.70;99.90;;;;;;5096668;28;19916;-76
2022/01/04 05:35:10;;;;;;;;;;;8.70;99.90;;;;;;5097205;28;19961;-75
2022/01/04 05:37:35;;;;;;;;;;;8.70;99.90;;;;;;5113674;28;20240;-76
2022/01/04 05:40:01;;;;;;;;;;;8.70;99.90;;;;;;5113546;28;20038;-75
2022/01/04 05:42:26;;;;;;;;;;;8.70;99.90;;;;;;5097672;27;19943;-76
2022/01/04 05:44:52;;;;;;;;;;;8.70;99.90;;;;;;5135386;27;19916;-75
2022/01/04 05:47:17;;;;;;;;;;;8.70;99.90;;;;;;5116681;27;19922;-76
2022/01/04 05:49:43;;;;;;;;;;;8.70;99.90;;;;;;5135255;27;19954;-75
2022/01/04 05:52:08;;;;;;;;;;;8.70;99.90;;;;;;5117852;27;20006;-75
2022/01/04 05:54:34;;;;;;;;;;;8.60;99.90;;;;;;5116224;27;20504;-75
2022/01/04 05:57:00;;;;;;;;;;;8.60;99.90;;;;;;5117355;27;20355;-75
2022/01/04 05:59:25;;;;;;;;;;;8.50;99.90;;;;;;5116390;27;19957;-75
2022/01/04 06:01:51;;;;;;;;;;;8.50;99.90;;;;;;5135627;27;19923;-75
2022/01/04 06:04:17;;;;;;;;;;;8.50;99.90;;;;;;5134431;27;20010;-81
2022/01/04 06:06:42;;;;;;;;;;;8.50;99.90;;;;;;5117779;27;20377;-76
2022/01/04 06:09:16;;;;;;;;;;;8.60;99.90;;;;;;5137131;27;20226;-76
2022/01/04 06:16:51;;;;;;;;;;;8.50;99.90;;;;;;5135411;27;19914;-76
2022/01/04 06:19:17;;;;;;;;;;;8.50;99.90;;;;;;5116089;27;19911;-81
2022/01/04 06:21:42;;;;;;;;;;;8.50;99.90;;;;;;5134836;27;19963;-77
2022/01/04 06:24:08;;;;;;;;;;;8.50;99.90;;;;;;5099828;27;20347;-77
2022/01/04 06:26:34;;;;;;;;;;;8.50;99.90;;;;;;5115753;27;20381;-77
2022/01/04 06:28:59;;;;;;;;;;;8.60;99.90;;;;;;5116440;27;19912;-77
2022/01/04 06:31:26;;;;;;;;;;;8.60;99.90;;;;;;5116312;27;19911;-77
2022/01/04 06:33:52;;;;;;;;;;;8.60;99.90;;;;;;5116602;27;19908;-77
2022/01/04 06:36:17;;;;;;;;;;;8.60;99.90;;;;;;5095602;28;19919;-80
2022/01/04 06:38:43;;;;;;;;;;;8.70;99.90;;;;;;5095071;28;19941;-77
2022/01/04 06:41:08;;;;;;;;;;;8.60;99.90;;;;;;5114102;28;20267;-76
2022/01/04 06:43:34;;;;;;;;;;;8.70;99.90;;;;;;5095103;28;20299;-77
2022/01/04 06:45:59;;;;;;;;;;;8.70;99.90;;;;;;5098894;27;19926;-77
2022/01/04 06:48:25;;;;;;;;;;;8.70;99.90;;;;;;5115060;27;19980;-77
2022/01/04 06:50:51;;;;;;;;;;;8.80;99.90;;;;;;5116084;27;20363;-76
2022/01/04 06:53:17;;;;;;;;;;;8.70;99.90;;;;;;5115775;27;19907;-77
2022/01/04 06:55:42;;;;;;;;;;;8.80;99.90;;;;;;5133980;27;19922;-77
2022/01/04 06:58:08;;;;;;;;;;;8.80;99.90;;;;;;5098322;27;20458;-77
2022/01/04 07:00:33;;;;;;;;;;;8.80;99.90;;;;;;5115399;27;19915;-77
2022/01/04 07:02:59;;;;;;;;;;;8.90;99.90;;;;;;5134248;27;20316;-78
2022/01/04 07:05:24;;;;;;;;;;;9.10;99.90;;;;;;5115466;27;19919;-78
2022/01/04 07:07:50;;;;;;;;;;;9.10;99.90;;;;;;5133841;27;19958;-77
2022/01/04 07:10:15;;;;;;;;;;;9.20;99.90;;;;;;5098852;27;19960;-77
2022/01/04 07:12:41;;;;;;;;;;;9.20;99.90;;;;;;5133813;27;20381;-77
2022/01/04 07:15:07;;;;;;;;;;;9.10;99.90;;;;;;5134163;27;20006;-77
2022/01/04 07:17:35;;;;;;;;;;;9.20;99.90;;;;;;5113537;27;19911;-77
2022/01/04 07:20:00;;;;;;;;;;;9.30;99.90;;;;;;5116016;27;19915;-77
2022/01/04 07:22:26;;;;;;;;;;;9.30;99.90;;;;;;5133679;27;19923;-78
2022/01/04 07:24:51;;;;;;;;;;;9.30;99.90;;;;;;5133835;27;19918;-77
2022/01/04 07:27:17;;;;;;;;;;;9.30;99.90;;;;;;5134102;27;19918;-76
2022/01/04 07:29:43;;;;;;;;;;;9.40;99.90;;;;;;5113912;27;19926;-77
2022/01/04 07:32:10;;;;;;;;;;;9.40;99.90;;;;;;5133965;27;20003;-76
2022/01/04 07:34:36;;;;;;;;;;;9.40;99.90;;;;;;5133163;27;19922;-77
2022/01/04 07:37:02;;;;;;;;;;;9.40;99.90;;;;;;5098690;27;19911;-77
2022/01/04 07:39:27;;;;;;;;;;;9.50;99.90;;;;;;5113450;27;20260;-77
2022/01/04 07:41:54;;;;;;;;;;;9.50;99.90;;;;;;5115051;27;19920;-77
2022/01/04 07:44:19;;;;;;;;;;;9.40;99.90;;;;;;5115217;28;20270;-77
2022/01/04 07:46:45;;;;;;;;;;;9.50;99.90;;;;;;5115238;28;19999;-77
2022/01/04 07:49:10;;;;;;;;;;;9.40;99.90;;;;;;5114602;28;19926;-77
2022/01/04 07:51:36;;;;;;;;;;;9.40;99.90;;;;;;5114772;28;20121;-77
2022/01/04 07:54:01;;;;;;;;;;;9.40;99.90;;;;;;5133578;28;19907;-77
2022/01/04 07:56:27;;;;;;;;;;;9.40;99.90;;;;;;5098188;28;20339;-81
2022/01/04 07:58:54;;;;;;;;;;;9.50;99.90;;;;;;5114796;28;19915;-77
2022/01/04 08:01:20;;;;;;;;;;;9.50;99.90;;;;;;5132844;28;20270;-77
2022/01/04 08:03:45;;;;;;;;;;;9.50;99.90;;;;;;5097415;28;19918;-76
2022/01/04 08:06:11;;;;;;;;;;;9.60;99.90;;;;;;5098015;28;20373;-76
2022/01/04 08:08:36;;;;;;;;;;;9.50;99.90;;;;;;5132625;28;19960;-77
2022/01/04 08:11:02;;;;;;;;;;;9.50;99.90;;;;;;5132868;28;19919;-76
2022/01/04 08:13:30;;;;;;;;;;;9.50;99.90;;;;;;5132981;27;20005;-81
2022/01/04 08:15:55;;;;;;;;;;;9.50;99.90;;;;;;5113338;28;20009;-76
2022/01/04 08:18:21;;;;;;;;;;;9.50;99.90;;;;;;5132653;28;19954;-76
2022/01/04 08:20:47;;;;;;;;;;;9.50;99.90;;;;;;5114033;28;20467;-76
2022/01/04 08:23:12;;;;;;;;;;;9.50;99.90;;;;;;5095659;28;19923;-76
2022/01/04 08:25:38;;;;;;;;;;;9.50;99.90;;;;;;5113727;28;19960;-77
2022/01/04 08:28:04;;;;;;;;;;;9.50;99.90;;;;;;5114841;28;19912;-75
2022/01/04 08:30:30;;;;;;;;;;;9.50;99.90;;;;;;5133136;28;19907;-80
2022/01/04 08:32:55;;;;;;;;;;;9.50;99.90;;;;;;5112576;28;19960;-76
2022/01/04 08:35:22;;;;;;;;;;;9.50;99.90;;;;;;5115121;28;19919;-76
2022/01/04 08:37:48;;;;;;;;;;;9.60;99.90;;;;;;5132598;27;19911;-75
2022/01/04 08:40:13;;;;;;;;;;;9.50;99.90;;;;;;5114936;28;19975;-75
2022/01/04 08:42:39;;;;;;;;;;;9.60;99.90;;;;;;5113873;28;20396;-78
2022/01/04 08:45:06;;;;;;;;;;;9.70;99.90;;;;;;5132927;28;19934;-76
2022/01/04 08:47:32;;;;;;;;;;;9.70;99.90;;;;;;5114232;28;20355;-81
2022/01/04 08:49:58;;;;;;;;;;;9.70;99.90;;;;;;5097895;27;19922;-76
2022/01/04 08:52:25;;;;;;;;;;;9.60;99.90;;;;;;5136490;27;20314;-77
2022/01/04 08:54:51;;;;;;;;;;;9.60;99.90;;;;;;5117637;27;20276;-77
2022/01/04 08:57:16;;;;;;;;;;;9.50;99.90;;;;;;5118897;27;20013;-76
2022/01/04 08:59:42;;;;;;;;;;;9.50;99.90;;;;;;5135782;27;19959;-77
2022/01/04 09:02:08;;;;;;;;;;;9.40;99.90;;;;;;5118148;27;19919;-77
2022/01/04 09:04:33;;;;;;;;;;;9.30;99.90;;;;;;5117051;27;19915;-82
2022/01/04 09:06:59;;;;;;;;;;;9.40;99.90;;;;;;5136616;27;19980;-77
2022/01/04 09:09:25;;;;;;;;;;;9.40;99.90;;;;;;5118062;27;19968;-77
2022/01/04 09:11:50;;;;;;;;;;;9.40;99.90;;;;;;5117602;27;20026;-77
2022/01/04 09:14:39;;;;;;;;;;;9.50;99.90;;;;;;5100617;27;19918;-77
2022/01/04 09:19:49;;;;;;;;;;;9.50;99.90;;;;;;5119538;27;19923;-77
2022/01/04 09:22:14;;;;;;;;;;;9.60;99.90;;;;;;5114048;28;20299;-77
2022/01/04 09:24:40;;;;;;;;;;;9.60;99.90;;;;;;5112734;28;20104;-77
2022/01/04 09:27:06;;;;;;;;;;;9.60;99.90;;;;;;5114408;28;19951;-78
2022/01/04 09:29:32;;;;;;;;;;;9.60;99.90;;;;;;5114175;28;19922;-77
2022/01/04 09:31:57;;;;;;;;;;;9.70;99.90;;;;;;5113691;28;20030;-77
2022/01/04 09:34:23;;;;;;;;;;;9.70;99.90;;;;;;5115046;28;19907;-77
2022/01/04 09:36:49;;;;;;;;;;;9.70;99.90;;;;;;5112840;28;19916;-77
2022/01/04 09:39:16;;;;;;;;;;;9.70;99.90;;;;;;5099763;28;19912;-77
2022/01/04 09:41:42;;;;;;;;;;;9.70;99.90;;;;;;5094143;28;19956;-78
2022/01/04 09:44:08;;;;;;;;;;;9.70;99.90;;;;;;5093474;28;19920;-77
2022/01/04 09:46:34;;;;;;;;;;;9.60;99.90;;;;;;5107521;28;19912;-74
2022/01/04 09:49:00;;;;;;;;;;;9.60;99.90;;;;;;5113178;28;19960;-75
2022/01/04 09:51:30;;;;;;;;;;;9.60;99.90;;;;;;5114411;28;19919;-75
2022/01/04 09:53:55;;;;;;;;;;;9.50;99.90;;;;;;5113392;28;20046;-75
2022/01/04 09:56:21;;;;;;;;;;;9.40;99.90;;;;;;5096403;28;20003;-76
2022/01/04 09:58:46;;;;;;;;;;;9.40;99.90;;;;;;5114392;28;20364;-76
2022/01/04 10:01:32;;;;;;;;;;;9.40;99.90;;;;;;5113872;28;19926;-75
2022/01/04 10:03:58;;;;;;;;;;;9.30;99.90;;;;;;5111599;28;19908;-76
2022/01/04 10:06:23;;;;;;;;;;;9.30;99.90;;;;;;5095734;28;19923;-75
2022/01/04 10:09:03;;;;;;;;;;;9.30;99.90;;;;;;5112567;28;20006;-75
2022/01/04 10:11:33;;;;;;;;;;;9.30;99.90;;;;;;5113465;28;19911;-76
2022/01/04 10:14:00;;;;;;;;;;;9.40;99.90;;;;;;5114045;28;19907;-76
2022/01/04 10:16:25;;;;;;;;;;;9.40;99.90;;;;;;5112973;28;19957;-77
2022/01/04 10:18:51;;;;;;;;;;;9.40;99.90;;;;;;5113849;28;19915;-76
2022/01/04 10:21:17;;;;;;;;;;;9.30;99.90;;;;;;5113674;28;19916;-76
2022/01/04 10:23:53;;;;;;;;;;;9.40;99.90;;;;;;5112862;28;20348;-81
2022/01/04 10:26:49;;;;;;;;;;;9.40;99.90;;;;;;5114611;28;19950;-76
2022/01/04 10:29:19;;;;;;;;;;;9.40;99.90;;;;;;5100375;28;19947;-77
2022/01/04 10:31:45;;;;;;;;;;;9.40;99.90;;;;;;5114338;28;19912;-77
2022/01/04 10:34:11;;;;;;;;;;;9.50;99.90;;;;;;5113437;28;19965;-77
2022/01/04 10:36:37;;;;;;;;;;;9.50;99.90;;;;;;5113439;28;20403;-77
2022/01/04 10:39:07;;;;;;;;;;;9.50;99.90;;;;;;5099258;28;19912;-77
2022/01/04 10:41:33;;;;;;;;;;;9.40;99.90;;;;;;5094201;28;20002;-77
2022/01/04 10:44:06;;;;;;;;;;;9.50;99.90;;;;;;5093444;28;20026;-77
2022/01/04 10:46:36;;;;;;;;;;;9.50;99.90;;;;;;5092741;28;19912;-78
2022/01/04 10:49:12;;;;;;;;;;;9.50;99.90;;;;;;5099966;28;20002;-77
2022/01/04 10:51:38;;;;;;;;;;;9.50;99.90;;;;;;5114519;28;20348;-77
2022/01/04 10:54:06;;;;;;;;;;;9.50;99.90;;;;;;5112544;28;19916;-77
2022/01/04 10:56:31;;;;;;;;;;;9.40;99.90;;;;;;5114059;28;19911;-77
2022/01/04 10:58:58;;;;;;;;;;;9.40;99.90;;;;;;5114804;28;20344;-77
2022/01/04 11:01:25;;;;;;;;;;;9.40;99.90;;;;;;5107851;28;19943;-76
2022/01/04 11:03:53;;;;;;;;;;;9.40;99.90;;;;;;5096932;28;19962;-77
2022/01/04 11:06:24;;;;;;;;;;;9.40;99.90;;;;;;5094251;28;19908;-77
2022/01/04 11:08:50;;;;;;;;;;;9.50;99.90;;;;;;5092707;28;20415;-77
2022/01/04 11:11:15;;;;;;;;;;;9.50;99.90;;;;;;5109003;28;20014;-77
2022/01/04 11:13:41;;;;;;;;;;;9.50;99.90;;;;;;5112775;28;19996;-78
2022/01/04 11:16:07;;;;;;;;;;;9.50;99.90;;;;;;5111819;28;20549;-77
2022/01/04 11:18:33;;;;;;;;;;;9.50;99.90;;;;;;5112041;28;20352;-77
2022/01/04 11:20:59;;;;;;;;;;;9.50;99.90;;;;;;5112512;28;20356;-77
2022/01/04 11:23:29;;;;;;;;;;;9.50;99.90;;;;;;5112143;28;19969;-77
2022/01/04 11:25:56;;;;;;;;;;;9.50;99.90;;;;;;5113257;28;19934;-77
2022/01/04 11:28:22;;;;;;;;;;;9.50;99.90;;;;;;5111948;28;19911;-77
2022/01/04 11:31:20;;;;;;;;;;;9.50;99.90;;;;;;5111558;28;19945;-81
2022/01/04 11:33:58;;;;;;;;;;;9.50;99.90;;;;;;5056455;28;20356;-77
2022/01/04 11:36:24;;;;;;;;;;;9.60;99.90;;;;;;5111861;28;19908;-77
2022/01/04 11:38:50;;;;;;;;;;;9.60;99.90;;;;;;5111398;28;19911;-80
2022/01/04 11:41:42;;;;;;;;;;;9.60;99.90;;;;;;5111629;28;20264;-78
2022/01/04 11:44:19;;;;;;;;;;;9.60;99.90;;;;;;5104093;28;20655;-77
2022/01/04 11:46:57;;;;;;;;;;;9.60;99.90;;;;;;5092487;28;19908;-77
2022/01/04 11:49:22;;;;;;;;;;;9.50;99.90;;;;;;5091518;28;20264;-77
2022/01/04 11:51:48;;;;;;;;;;;9.50;99.90;;;;;;5091718;28;19912;-79
2022/01/04 11:54:21;;;;;;;;;;;9.50;99.90;;;;;;5094162;28;19918;-77
2022/01/04 11:56:54;;;;;;;;;;;9.60;99.90;;;;;;5112974;28;19923;-78
2022/01/04 11:59:40;;;;;;;;;;;9.50;99.90;;;;;;5112707;28;19912;-77
2022/01/04 12:02:26;;;;;;;;;;;9.50;99.90;;;;;;5110284;28;19916;-78
2022/01/04 12:04:53;;;;;;;;;;;9.50;99.90;;;;;;5090959;28;19923;-83
2022/01/04 12:07:37;;;;;;;;;;;9.50;99.90;;;;;;5092500;28;19954;-77
2022/01/04 12:10:17;;;;;;;;;;;9.50;99.90;;;;;;5090567;28;20294;-77
2022/01/04 12:12:58;;;;;;;;;;;9.50;99.90;;;;;;5090981;28;19914;-78
2022/01/04 12:15:33;;;;;;;;;;;9.50;99.90;;;;;;5110810;28;20007;-78
2022/01/04 12:18:02;;;;;;;;;;;9.50;99.90;;;;;;5110901;28;20249;-78
2022/01/04 12:20:43;;;;;;;;;;;9.50;99.90;;;;;;5111551;28;19980;-78
2022/01/04 12:23:30;;;;;;;;;;;9.50;99.90;;;;;;5110419;28;20010;-78
2022/01/04 12:28:31;;;;;;;;;;;9.60;99.90;;;;;;5116349;28;19951;-78
2022/01/04 12:31:19;;;;;;;;;;;9.60;99.90;;;;;;5114930;28;19919;-78
2022/01/04 12:33:45;;;;;;;;;;;9.60;99.90;;;;;;5114884;28;19908;-77
2022/01/04 12:36:22;;;;;;;;;;;9.50;99.90;;;;;;5115287;28;19916;-77
2022/01/04 12:38:48;;;;;;;;;;;9.50;99.90;;;;;;5111584;28;19912;-78
2022/01/04 12:41:15;;;;;;;;;;;9.50;99.90;;;;;;5114485;28;20539;-78
2022/01/04 12:43:40;;;;;;;;;;;9.50;99.90;;;;;;5114752;28;20263;-78
2022/01/04 12:46:06;;;;;;;;;;;9.50;99.90;;;;;;5112991;28;19911;-79
2022/01/04 12:48:48;;;;;;;;;;;9.50;99.90;;;;;;5098206;28;20399;-78
2022/01/04 12:51:27;;;;;;;;;;;9.50;99.90;;;;;;5115484;28;19912;-78
2022/01/04 12:53:53;;;;;;;;;;;9.50;99.90;;;;;;5097435;28;19912;-78
2022/01/04 12:56:19;;;;;;;;;;;9.50;99.90;;;;;;5106191;28;19964;-79
2022/01/04 12:58:45;;;;;;;;;;;9.50;99.90;;;;;;5097332;28;19919;-78
2022/01/04 13:01:11;;;;;;;;;;;9.50;99.90;;;;;;5096340;28;19935;-78
2022/01/04 13:03:36;;;;;;;;;;;9.40;99.90;;;;;;5114702;28;20340;-78
2022/01/04 13:06:04;;;;;;;;;;;9.40;99.90;;;;;;5112675;28;20045;-78
2022/01/04 13:08:33;;;;;;;;;;;9.50;99.90;;;;;;5114757;28;19954;-78
2022/01/04 13:11:05;;;;;;;;;;;9.50;99.90;;;;;;5109472;28;19912;-83
2022/01/04 13:13:31;;;;;;;;;;;9.50;99.90;;;;;;5114676;28;19922;-77
2022/01/04 13:16:15;;;;;;;;;;;9.50;99.90;;;;;;5097470;28;20271;-80
2022/01/04 13:18:41;;;;;;;;;;;9.50;99.90;;;;;;5114022;28;19994;-76
2022/01/04 13:21:06;;;;;;;;;;;9.50;99.90;;;;;;5115090;28;20057;-77
2022/01/04 13:23:38;;;;;;;;;;;9.50;99.90;;;;;;5133065;27;19958;-77
2022/01/04 13:26:04;;;;;;;;;;;9.50;99.90;;;;;;5117376;27;19911;-77
2022/01/04 13:28:29;;;;;;;;;;;9.50;99.90;;;;;;5115365;27;19995;-76
2022/01/04 13:30:55;;;;;;;;;;;9.50;99.90;;;;;;5135641;27;20256;-76
2022/01/04 13:33:23;;;;;;;;;;;9.50;99.90;;;;;;5135118;27;19920;-76
2022/01/04 13:35:49;;;;;;;;;;;9.50;99.90;;;;;;5100337;27;19935;-77
2022/01/04 13:38:17;;;;;;;;;;;9.50;99.90;;;;;;5114971;27;19911;-76
2022/01/04 13:40:45;;;;;;;;;;;9.50;99.90;;;;;;5135143;27;19920;-77
2022/01/04 13:43:16;;;;;;;;;;;9.50;99.90;;;;;;5116758;27;19951;-76
2022/01/04 13:45:44;;;;;;;;;;;9.50;99.90;;;;;;5108992;27;19915;-76
2022/01/04 13:48:11;;;;;;;;;;;9.50;99.90;;;;;;5116123;27;20308;-76
2022/01/04 13:50:42;;;;;;;;;;;9.50;99.90;;;;;;5116662;27;19907;-76
2022/01/04 13:53:09;;;;;;;;;;;9.40;99.90;;;;;;5134035;27;19915;-75
2022/01/04 13:55:48;;;;;;;;;;;9.30;99.90;;;;;;5135250;27;19912;-75
2022/01/04 13:58:33;;;;;;;;;;;9.30;99.90;;;;;;5132115;27;20374;-75
2022/01/04 14:01:09;;;;;;;;;;;9.30;99.90;;;;;;5135004;27;19919;-75
2022/01/04 14:03:34;;;;;;;;;;;9.30;99.90;;;;;;5133059;27;20426;-75
2022/01/04 14:06:00;;;;;;;;;;;9.30;99.90;;;;;;5116964;27;19907;-75
2022/01/04 14:08:44;;;;;;;;;;;9.20;99.90;;;;;;5116209;27;19951;-75
2022/01/04 14:11:10;;;;;;;;;;;9.20;99.90;;;;;;5134220;27;19912;-75
2022/01/04 14:13:36;;;;;;;;;;;9.20;99.90;;;;;;5134702;27;19911;-76
2022/01/04 14:16:12;;;;;;;;;;;9.10;99.90;;;;;;5135266;27;19915;-76
2022/01/04 14:18:58;;;;;;;;;;;9.00;99.90;;;;;;5135140;27;19907;-77
2022/01/04 14:21:30;;;;;;;;;;;8.90;99.90;;;;;;5115396;27;20607;-76
2022/01/04 14:23:56;;;;;;;;;;;8.90;99.90;;;;;;5134376;27;19935;-77
2022/01/04 14:26:22;;;;;;;;;;;8.90;99.90;;;;;;5115465;27;19965;-76
2022/01/04 14:28:47;;;;;;;;;;;8.80;99.90;;;;;;5116016;27;19911;-77
2022/01/04 14:31:16;;;;;;;;;;;8.90;99.90;;;;;;5115895;27;20347;-77
2022/01/04 14:33:42;;;;;;;;;;;8.80;99.90;;;;;;5116083;27;19935;-76
2022/01/04 14:36:07;;;;;;;;;;;8.80;99.90;;;;;;5095342;27;19955;-81
2022/01/04 14:38:33;;;;;;;;;;;8.80;99.90;;;;;;5115984;27;19992;-77
2022/01/04 14:40:58;;;;;;;;;;;8.80;99.90;;;;;;5134633;27;19915;-77
2022/01/04 14:43:25;;;;;;;;;;;8.70;99.90;;;;;;5115561;27;19918;-77
2022/01/04 14:45:50;;;;;;;;;;;8.70;99.90;;;;;;5093902;27;19920;-77
2022/01/04 14:48:17;;;;;;;;;;;8.70;99.90;;;;;;5133849;27;19956;-76